sensor_id;sensor_type;location;lat;lon;timestamp;temperature;humidity
55211;DHT22;41082;52.822;6.666;2023-08-08T00:02:21;13.80;99.90
55211;DHT22;41082;52.822;6.666;2023-08-08T00:04:48;13.80;99.90
55211;DHT22;41082;52.822;6.666;2023-08-08T00:07:14;13.80;99.90
55211;DHT22;41082;52.822;6.666;2023-08-08T00:09:39;13.80;99.90
55211;DHT22;41082;52.822;6.666;2023-08-08T00:12:05;13.80;99.90
55211;DHT22;41082;52.822;6.666;2023-08-08T00:14:31;13.80;99.90
55211;DHT22;41082;52.822;6.666;2023-08-08T00:16:56;13.80;99.90
55211;DHT22;41082;52.822;6.666;2023-08-08T00:19:22;13.80;99.90
55211;DHT22;41082;52.822;6.666;2023-08-08T00:21:47;13.80;99.90
55211;DHT22;41082;52.822;6.666;2023-08-08T00:24:13;13.80;99.90
55211;DHT22;41082;52.822;6.666;2023-08-08T00:26:38;13.80;99.90
55211;DHT22;41082;52.822;6.666;2023-08-08T00:29:04;13.80;99.90
55211;DHT22;41082;52.822;6.666;2023-08-08T00:31:29;13.80;99.90
55211;DHT22;41082;52.822;6.666;2023-08-08T00:33:55;13.90;99.90
55211;DHT22;41082;52.822;6.666;2023-08-08T00:36:21;13.90;99.90
55211;DHT22;41082;52.822;6.666;2023-08-08T00:38:46;13.90;99.90
55211;DHT22;41082;52.822;6.666;2023-08-08T00:41:12;13.90;99.90
55211;DHT22;41082;52.822;6.666;2023-08-08T00:43:37;13.90;99.90
55211;DHT22;41082;52.822;6.666;2023-08-08T00:46:03;13.90;99.90
55211;DHT22;41082;52.822;6.666;2023-08-08T00:48:30;13.90;99.90
55211;DHT22;41082;52.822;6.666;2023-08-08T00:50:56;13.90;99.90
55211;DHT22;41082;52.822;6.666;2023-08-08T00:53:21;13.90;99.90
55211;DHT22;41082;52.822;6.666;2023-08-08T00:55:53;13.90;99.90
55211;DHT22;41082;52.822;6.666;2023-08-08T00:58:19;13.90;99.90
55211;DHT22;41082;52.822;6.666;2023-08-08T01:00:45;13.90;99.90
55211;DHT22;41082;52.822;6.666;2023-08-08T01:03:10;13.90;99.90
55211;DHT22;41082;52.822;6.666;2023-08-08T01:05:43;13.90;99.90
55211;DHT22;41082;52.822;6.666;2023-08-08T01:08:11;14.00;99.90
55211;DHT22;41082;52.822;6.666;2023-08-08T01:10:39;13.90;99.90
55211;DHT22;41082;52.822;6.666;2023-08-08T01:13:09;14.00;99.90
55211;DHT22;41082;52.822;6.666;2023-08-08T01:15:36;14.00;99.90
55211;DHT22;41082;52.822;6.666;2023-08-08T01:18:07;13.90;99.90
55211;DHT22;41082;52.822;6.666;2023-08-08T01:20:34;14.00;99.90
55211;DHT22;41082;52.822;6.666;2023-08-08T01:26:03;14.00;99.90
55211;DHT22;41082;52.822;6.666;2023-08-08T01:28:29;14.00;99.90
55211;DHT22;41082;52.822;6.666;2023-08-08T01:30:54;14.00;99.90
55211;DHT22;41082;52.822;6.666;2023-08-08T01:33:20;14.00;99.90
55211;DHT22;41082;52.822;6.666;2023-08-08T01:35:54;14.00;99.90
55211;DHT22;41082;52.822;6.666;2023-08-08T01:38:30;14.00;99.90
55211;DHT22;41082;52.822;6.666;2023-08-08T01:40:57;14.00;99.90
55211;DHT22;41082;52.822;6.666;2023-08-08T01:43:24;14.00;99.90
55211;DHT22;41082;52.822;6.666;2023-08-08T01:45:50;14.00;99.90
55211;DHT22;41082;52.822;6.666;2023-08-08T01:48:16;14.00;99.90
55211;DHT22;41082;52.822;6.666;2023-08-08T01:50:42;14.00;99.90
55211;DHT22;41082;52.822;6.666;2023-08-08T01:53:07;14.10;99.90
55211;DHT22;41082;52.822;6.666;2023-08-08T01:55:33;14.00;99.90
55211;DHT22;41082;52.822;6.666;2023-08-08T01:57:59;14.10;99.90
55211;DHT22;41082;52.822;6.666;2023-08-08T02:00:24;14.10;99.90
55211;DHT22;41082;52.822;6.666;2023-08-08T02:02:50;14.10;99.90
55211;DHT22;41082;52.822;6.666;2023-08-08T02:05:15;14.10;99.90
55211;DHT22;41082;52.822;6.666;2023-08-08T02:07:41;14.10;99.90
55211;DHT22;41082;52.822;6.666;2023-08-08T02:10:07;14.10;99.90
55211;DHT22;41082;52.822;6.666;2023-08-08T02:12:32;14.10;99.90
55211;DHT22;41082;52.822;6.666;2023-08-08T02:14:58;14.10;99.90
55211;DHT22;41082;52.822;6.666;2023-08-08T02:17:25;14.10;99.90
55211;DHT22;41082;52.822;6.666;2023-08-08T02:19:51;14.10;99.90
55211;DHT22;41082;52.822;6.666;2023-08-08T02:22:17;14.20;99.90
55211;DHT22;41082;52.822;6.666;2023-08-08T02:24:43;14.20;99.90
55211;DHT22;41082;52.822;6.666;2023-08-08T02:27:09;14.20;99.90
55211;DHT22;41082;52.822;6.666;2023-08-08T02:29:35;14.20;99.90
55211;DHT22;41082;52.822;6.666;2023-08-08T02:32:00;14.20;99.90
55211;DHT22;41082;52.822;6.666;2023-08-08T02:34:26;14.20;99.90
55211;DHT22;41082;52.822;6.666;2023-08-08T02:36:51;14.20;99.90
55211;DHT22;41082;52.822;6.666;2023-08-08T02:39:17;14.20;99.90
55211;DHT22;41082;52.822;6.666;2023-08-08T02:41:43;14.20;99.90
55211;DHT22;41082;52.822;6.666;2023-08-08T02:44:10;14.20;99.90
55211;DHT22;41082;52.822;6.666;2023-08-08T02:46:35;14.20;99.90
55211;DHT22;41082;52.822;6.666;2023-08-08T02:49:04;14.20;99.90
55211;DHT22;41082;52.822;6.666;2023-08-08T02:51:29;14.20;99.90
55211;DHT22;41082;52.822;6.666;2023-08-08T02:53:55;14.20;99.90
55211;DHT22;41082;52.822;6.666;2023-08-08T02:56:20;14.20;99.90
55211;DHT22;41082;52.822;6.666;2023-08-08T02:58:46;14.30;99.90
55211;DHT22;41082;52.822;6.666;2023-08-08T03:01:11;14.20;99.90
55211;DHT22;41082;52.822;6.666;2023-08-08T03:03:40;14.30;99.90
55211;DHT22;41082;52.822;6.666;2023-08-08T03:06:06;14.30;99.90
55211;DHT22;41082;52.822;6.666;2023-08-08T03:08:31;14.30;99.90
55211;DHT22;41082;52.822;6.666;2023-08-08T03:10:57;14.30;99.90
55211;DHT22;41082;52.822;6.666;2023-08-08T03:13:22;14.30;99.90
55211;DHT22;41082;52.822;6.666;2023-08-08T03:15:48;14.30;99.90
55211;DHT22;41082;52.822;6.666;2023-08-08T03:18:14;14.30;99.90
55211;DHT22;41082;52.822;6.666;2023-08-08T03:20:39;14.20;99.90
55211;DHT22;41082;52.822;6.666;2023-08-08T03:23:05;14.30;99.90
55211;DHT22;41082;52.822;6.666;2023-08-08T03:25:31;14.30;99.90
55211;DHT22;41082;52.822;6.666;2023-08-08T03:27:56;14.20;99.90
55211;DHT22;41082;52.822;6.666;2023-08-08T03:30:22;14.20;99.90
55211;DHT22;41082;52.822;6.666;2023-08-08T03:32:47;14.20;99.90
55211;DHT22;41082;52.822;6.666;2023-08-08T03:35:13;14.20;99.90
55211;DHT22;41082;52.822;6.666;2023-08-08T03:37:40;14.20;99.90
55211;DHT22;41082;52.822;6.666;2023-08-08T03:40:07;14.20;99.90
55211;DHT22;41082;52.822;6.666;2023-08-08T03:42:33;14.10;99.90
55211;DHT22;41082;52.822;6.666;2023-08-08T03:44:59;14.10;99.90
55211;DHT22;41082;52.822;6.666;2023-08-08T03:47:25;14.10;99.90
55211;DHT22;41082;52.822;6.666;2023-08-08T03:49:51;14.10;99.90
55211;DHT22;41082;52.822;6.666;2023-08-08T03:52:16;14.10;99.90
55211;DHT22;41082;52.822;6.666;2023-08-08T03:54:43;14.10;99.90
55211;DHT22;41082;52.822;6.666;2023-08-08T03:57:08;14.10;99.90
55211;DHT22;41082;52.822;6.666;2023-08-08T03:59:34;14.10;99.90
55211;DHT22;41082;52.822;6.666;2023-08-08T04:01:59;14.10;99.90
55211;DHT22;41082;52.822;6.666;2023-08-08T04:04:25;14.10;99.90
55211;DHT22;41082;52.822;6.666;2023-08-08T04:06:50;14.10;99.90
55211;DHT22;41082;52.822;6.666;2023-08-08T04:09:16;14.00;99.90
55211;DHT22;41082;52.822;6.666;2023-08-08T04:11:42;14.00;99.90
55211;DHT22;41082;52.822;6.666;2023-08-08T04:14:07;14.00;99.90
55211;DHT22;41082;52.822;6.666;2023-08-08T04:16:33;14.00;99.90
55211;DHT22;41082;52.822;6.666;2023-08-08T04:18:58;14.00;99.90
55211;DHT22;41082;52.822;6.666;2023-08-08T04:21:24;14.00;99.90
55211;DHT22;41082;52.822;6.666;2023-08-08T04:23:52;13.90;99.90
55211;DHT22;41082;52.822;6.666;2023-08-08T04:26:18;13.90;99.90
55211;DHT22;41082;52.822;6.666;2023-08-08T04:28:43;13.90;99.90
55211;DHT22;41082;52.822;6.666;2023-08-08T04:31:09;13.90;99.90
55211;DHT22;41082;52.822;6.666;2023-08-08T04:33:34;13.90;99.90
55211;DHT22;41082;52.822;6.666;2023-08-08T04:36:00;13.80;99.90
55211;DHT22;41082;52.822;6.666;2023-08-08T04:38:26;13.80;99.90
55211;DHT22;41082;52.822;6.666;2023-08-08T04:40:51;13.80;99.90
55211;DHT22;41082;52.822;6.666;2023-08-08T04:43:17;13.80;99.90
55211;DHT22;41082;52.822;6.666;2023-08-08T04:45:42;13.80;99.90
55211;DHT22;41082;52.822;6.666;2023-08-08T04:48:08;13.80;99.90
55211;DHT22;41082;52.822;6.666;2023-08-08T04:50:33;13.80;99.90
55211;DHT22;41082;52.822;6.666;2023-08-08T04:52:59;13.80;99.90
55211;DHT22;41082;52.822;6.666;2023-08-08T04:55:24;13.80;99.90
55211;DHT22;41082;52.822;6.666;2023-08-08T04:57:50;13.80;99.90
55211;DHT22;41082;52.822;6.666;2023-08-08T05:00:16;13.80;99.90
55211;DHT22;41082;52.822;6.666;2023-08-08T05:02:41;13.80;99.90
55211;DHT22;41082;52.822;6.666;2023-08-08T05:05:08;13.80;99.90
55211;DHT22;41082;52.822;6.666;2023-08-08T05:07:34;13.80;99.90
55211;DHT22;41082;52.822;6.666;2023-08-08T05:10:03;13.80;99.90
55211;DHT22;41082;52.822;6.666;2023-08-08T05:12:28;13.80;99.90
55211;DHT22;41082;52.822;6.666;2023-08-08T05:14:54;13.80;99.90
55211;DHT22;41082;52.822;6.666;2023-08-08T05:17:20;13.90;99.90
55211;DHT22;41082;52.822;6.666;2023-08-08T05:19:46;13.80;99.90
55211;DHT22;41082;52.822;6.666;2023-08-08T05:22:11;13.90;99.90
55211;DHT22;41082;52.822;6.666;2023-08-08T05:24:37;14.00;99.90
55211;DHT22;41082;52.822;6.666;2023-08-08T05:27:03;14.10;99.90
55211;DHT22;41082;52.822;6.666;2023-08-08T05:29:29;14.20;99.90
55211;DHT22;41082;52.822;6.666;2023-08-08T05:31:55;14.30;99.90
55211;DHT22;41082;52.822;6.666;2023-08-08T05:34:23;14.40;99.90
55211;DHT22;41082;52.822;6.666;2023-08-08T05:36:48;14.40;99.90
55211;DHT22;41082;52.822;6.666;2023-08-08T05:39:14;14.50;99.90
55211;DHT22;41082;52.822;6.666;2023-08-08T05:41:39;14.60;99.90
55211;DHT22;41082;52.822;6.666;2023-08-08T05:44:05;14.60;99.90
55211;DHT22;41082;52.822;6.666;2023-08-08T05:46:31;14.60;99.90
55211;DHT22;41082;52.822;6.666;2023-08-08T05:48:57;14.70;99.90
55211;DHT22;41082;52.822;6.666;2023-08-08T05:51:22;14.70;99.90
55211;DHT22;41082;52.822;6.666;2023-08-08T05:53:48;14.80;99.90
55211;DHT22;41082;52.822;6.666;2023-08-08T05:56:13;14.80;99.90
55211;DHT22;41082;52.822;6.666;2023-08-08T05:58:39;14.70;99.90
55211;DHT22;41082;52.822;6.666;2023-08-08T06:01:04;14.80;99.90
55211;DHT22;41082;52.822;6.666;2023-08-08T06:03:34;14.80;99.90
55211;DHT22;41082;52.822;6.666;2023-08-08T06:06:01;14.70;99.90
55211;DHT22;41082;52.822;6.666;2023-08-08T06:08:26;14.70;99.90
55211;DHT22;41082;52.822;6.666;2023-08-08T06:10:52;14.70;99.90
55211;DHT22;41082;52.822;6.666;2023-08-08T06:13:18;14.80;99.90
55211;DHT22;41082;52.822;6.666;2023-08-08T06:15:43;14.90;99.90
55211;DHT22;41082;52.822;6.666;2023-08-08T06:18:09;14.90;99.90
55211;DHT22;41082;52.822;6.666;2023-08-08T06:20:34;15.00;99.90
55211;DHT22;41082;52.822;6.666;2023-08-08T06:23:00;15.10;99.90
55211;DHT22;41082;52.822;6.666;2023-08-08T06:25:26;15.20;99.90
55211;DHT22;41082;52.822;6.666;2023-08-08T06:27:51;15.30;99.90
55211;DHT22;41082;52.822;6.666;2023-08-08T06:30:17;15.30;99.90
55211;DHT22;41082;52.822;6.666;2023-08-08T06:32:42;15.40;99.90
55211;DHT22;41082;52.822;6.666;2023-08-08T06:35:08;15.50;99.90
55211;DHT22;41082;52.822;6.666;2023-08-08T06:37:34;15.50;99.90
55211;DHT22;41082;52.822;6.666;2023-08-08T06:39:59;15.60;99.90
55211;DHT22;41082;52.822;6.666;2023-08-08T06:42:25;15.70;99.90
55211;DHT22;41082;52.822;6.666;2023-08-08T06:44:51;15.80;99.90
55211;DHT22;41082;52.822;6.666;2023-08-08T06:47:17;15.80;99.90
55211;DHT22;41082;52.822;6.666;2023-08-08T06:49:42;15.90;99.90
55211;DHT22;41082;52.822;6.666;2023-08-08T06:52:08;16.00;99.90
55211;DHT22;41082;52.822;6.666;2023-08-08T06:54:34;16.10;99.90
55211;DHT22;41082;52.822;6.666;2023-08-08T06:57:00;16.10;99.90
55211;DHT22;41082;52.822;6.666;2023-08-08T06:59:26;16.20;99.90
55211;DHT22;41082;52.822;6.666;2023-08-08T07:01:53;16.30;99.90
55211;DHT22;41082;52.822;6.666;2023-08-08T07:04:18;16.40;99.90
55211;DHT22;41082;52.822;6.666;2023-08-08T07:06:44;16.40;99.90
55211;DHT22;41082;52.822;6.666;2023-08-08T07:09:10;16.40;99.90
55211;DHT22;41082;52.822;6.666;2023-08-08T07:11:37;16.50;99.90
55211;DHT22;41082;52.822;6.666;2023-08-08T07:14:02;16.50;99.90
55211;DHT22;41082;52.822;6.666;2023-08-08T07:16:28;16.60;99.90
55211;DHT22;41082;52.822;6.666;2023-08-08T07:18:54;16.60;99.90
55211;DHT22;41082;52.822;6.666;2023-08-08T07:21:19;16.70;99.90
55211;DHT22;41082;52.822;6.666;2023-08-08T07:23:46;16.80;99.90
55211;DHT22;41082;52.822;6.666;2023-08-08T07:26:11;16.90;99.90
55211;DHT22;41082;52.822;6.666;2023-08-08T07:28:37;16.90;99.90
55211;DHT22;41082;52.822;6.666;2023-08-08T07:31:03;17.00;99.90
55211;DHT22;41082;52.822;6.666;2023-08-08T07:33:28;17.00;99.90
55211;DHT22;41082;52.822;6.666;2023-08-08T07:35:54;17.10;99.90
55211;DHT22;41082;52.822;6.666;2023-08-08T07:38:19;17.10;99.90
55211;DHT22;41082;52.822;6.666;2023-08-08T07:40:45;17.10;99.90
55211;DHT22;41082;52.822;6.666;2023-08-08T07:43:11;17.20;99.90
55211;DHT22;41082;52.822;6.666;2023-08-08T07:45:37;17.20;99.90
55211;DHT22;41082;52.822;6.666;2023-08-08T07:48:04;17.30;99.90
55211;DHT22;41082;52.822;6.666;2023-08-08T07:50:29;17.30;99.90
55211;DHT22;41082;52.822;6.666;2023-08-08T07:52:55;17.30;99.90
55211;DHT22;41082;52.822;6.666;2023-08-08T07:55:20;17.40;99.90
55211;DHT22;41082;52.822;6.666;2023-08-08T07:57:46;17.50;99.90
55211;DHT22;41082;52.822;6.666;2023-08-08T08:00:12;17.60;99.90
55211;DHT22;41082;52.822;6.666;2023-08-08T08:02:42;17.80;99.90
55211;DHT22;41082;52.822;6.666;2023-08-08T08:05:09;17.90;99.90
55211;DHT22;41082;52.822;6.666;2023-08-08T08:07:35;18.00;99.90
55211;DHT22;41082;52.822;6.666;2023-08-08T08:10:02;18.10;99.90
55211;DHT22;41082;52.822;6.666;2023-08-08T08:12:29;18.10;99.90
55211;DHT22;41082;52.822;6.666;2023-08-08T08:14:55;18.00;99.90
55211;DHT22;41082;52.822;6.666;2023-08-08T08:17:21;18.00;99.90
55211;DHT22;41082;52.822;6.666;2023-08-08T08:19:46;18.00;99.90
55211;DHT22;41082;52.822;6.666;2023-08-08T08:22:12;18.00;99.90
55211;DHT22;41082;52.822;6.666;2023-08-08T08:24:37;18.10;99.90
55211;DHT22;41082;52.822;6.666;2023-08-08T08:27:03;18.00;99.90
55211;DHT22;41082;52.822;6.666;2023-08-08T08:29:29;18.00;99.90
55211;DHT22;41082;52.822;6.666;2023-08-08T08:31:56;18.00;99.90
55211;DHT22;41082;52.822;6.666;2023-08-08T08:34:21;18.10;99.90
55211;DHT22;41082;52.822;6.666;2023-08-08T08:36:47;18.20;99.90
55211;DHT22;41082;52.822;6.666;2023-08-08T08:39:13;18.20;99.90
55211;DHT22;41082;52.822;6.666;2023-08-08T08:41:40;18.20;99.90
55211;DHT22;41082;52.822;6.666;2023-08-08T08:44:05;18.30;99.90
55211;DHT22;41082;52.822;6.666;2023-08-08T08:46:32;18.30;99.90
55211;DHT22;41082;52.822;6.666;2023-08-08T08:49:02;18.30;99.90
55211;DHT22;41082;52.822;6.666;2023-08-08T08:51:30;18.10;99.90
55211;DHT22;41082;52.822;6.666;2023-08-08T08:53:57;18.20;99.90
55211;DHT22;41082;52.822;6.666;2023-08-08T08:56:23;18.20;99.90
55211;DHT22;41082;52.822;6.666;2023-08-08T08:58:49;18.10;99.90
55211;DHT22;41082;52.822;6.666;2023-08-08T09:01:15;18.20;99.90
55211;DHT22;41082;52.822;6.666;2023-08-08T09:03:44;18.20;99.90
55211;DHT22;41082;52.822;6.666;2023-08-08T09:06:11;18.30;99.90
55211;DHT22;41082;52.822;6.666;2023-08-08T09:08:37;18.30;99.90
55211;DHT22;41082;52.822;6.666;2023-08-08T09:11:03;18.30;99.90
55211;DHT22;41082;52.822;6.666;2023-08-08T09:13:41;18.30;99.90
55211;DHT22;41082;52.822;6.666;2023-08-08T09:16:08;18.40;99.90
55211;DHT22;41082;52.822;6.666;2023-08-08T09:18:34;18.60;99.90
55211;DHT22;41082;52.822;6.666;2023-08-08T09:21:00;18.60;99.90
55211;DHT22;41082;52.822;6.666;2023-08-08T09:23:25;18.70;99.90
55211;DHT22;41082;52.822;6.666;2023-08-08T09:25:51;18.80;99.90
55211;DHT22;41082;52.822;6.666;2023-08-08T09:28:17;18.90;99.90
55211;DHT22;41082;52.822;6.666;2023-08-08T09:30:43;18.90;99.90
55211;DHT22;41082;52.822;6.666;2023-08-08T09:33:09;19.00;99.90
55211;DHT22;41082;52.822;6.666;2023-08-08T09:35:38;19.00;99.90
55211;DHT22;41082;52.822;6.666;2023-08-08T09:38:04;18.90;99.90
55211;DHT22;41082;52.822;6.666;2023-08-08T09:40:30;18.80;99.90
55211;DHT22;41082;52.822;6.666;2023-08-08T09:42:57;18.70;99.90
55211;DHT22;41082;52.822;6.666;2023-08-08T09:45:24;18.60;99.90
55211;DHT22;41082;52.822;6.666;2023-08-08T09:47:51;18.40;99.90
55211;DHT22;41082;52.822;6.666;2023-08-08T09:50:18;18.20;99.90
55211;DHT22;41082;52.822;6.666;2023-08-08T09:52:44;18.20;99.90
55211;DHT22;41082;52.822;6.666;2023-08-08T09:55:11;18.30;99.90
55211;DHT22;41082;52.822;6.666;2023-08-08T09:57:39;18.50;99.90
55211;DHT22;41082;52.822;6.666;2023-08-08T10:00:06;18.60;99.90
55211;DHT22;41082;52.822;6.666;2023-08-08T10:02:36;18.80;99.90
55211;DHT22;41082;52.822;6.666;2023-08-08T10:05:04;18.90;99.90
55211;DHT22;41082;52.822;6.666;2023-08-08T10:07:30;19.10;99.90
55211;DHT22;41082;52.822;6.666;2023-08-08T10:09:56;19.20;99.90
55211;DHT22;41082;52.822;6.666;2023-08-08T10:12:23;19.30;99.90
55211;DHT22;41082;52.822;6.666;2023-08-08T10:14:51;19.40;99.90
55211;DHT22;41082;52.822;6.666;2023-08-08T10:17:19;19.40;99.90
55211;DHT22;41082;52.822;6.666;2023-08-08T10:19:53;19.40;99.90
55211;DHT22;41082;52.822;6.666;2023-08-08T10:22:24;19.50;99.90
55211;DHT22;41082;52.822;6.666;2023-08-08T10:24:53;19.60;99.90
55211;DHT22;41082;52.822;6.666;2023-08-08T10:27:32;19.80;99.90
55211;DHT22;41082;52.822;6.666;2023-08-08T10:30:08;19.90;99.90
55211;DHT22;41082;52.822;6.666;2023-08-08T10:32:45;20.00;99.90
55211;DHT22;41082;52.822;6.666;2023-08-08T10:35:13;20.20;99.90
55211;DHT22;41082;52.822;6.666;2023-08-08T10:37:39;20.20;99.90
55211;DHT22;41082;52.822;6.666;2023-08-08T10:40:07;20.00;99.90
55211;DHT22;41082;52.822;6.666;2023-08-08T10:42:42;19.80;99.90
55211;DHT22;41082;52.822;6.666;2023-08-08T10:45:11;19.60;99.90
55211;DHT22;41082;52.822;6.666;2023-08-08T10:47:40;19.50;99.90
55211;DHT22;41082;52.822;6.666;2023-08-08T10:50:10;19.60;99.90
55211;DHT22;41082;52.822;6.666;2023-08-08T10:55:25;19.40;99.90
55211;DHT22;41082;52.822;6.666;2023-08-08T10:57:54;19.20;99.90
55211;DHT22;41082;52.822;6.666;2023-08-08T11:00:27;19.10;99.90
55211;DHT22;41082;52.822;6.666;2023-08-08T11:02:54;19.20;99.90
55211;DHT22;41082;52.822;6.666;2023-08-08T11:05:22;19.10;99.90
55211;DHT22;41082;52.822;6.666;2023-08-08T11:07:48;19.00;99.90
55211;DHT22;41082;52.822;6.666;2023-08-08T11:10:14;18.80;99.90
55211;DHT22;41082;52.822;6.666;2023-08-08T11:12:39;18.70;99.90
55211;DHT22;41082;52.822;6.666;2023-08-08T11:15:05;18.60;99.90
55211;DHT22;41082;52.822;6.666;2023-08-08T11:17:32;18.50;99.90
55211;DHT22;41082;52.822;6.666;2023-08-08T11:19:57;18.50;99.90
55211;DHT22;41082;52.822;6.666;2023-08-08T11:22:23;18.60;99.90
55211;DHT22;41082;52.822;6.666;2023-08-08T11:24:49;18.80;99.90
55211;DHT22;41082;52.822;6.666;2023-08-08T11:27:16;18.80;99.90
55211;DHT22;41082;52.822;6.666;2023-08-08T11:29:49;18.80;99.90
55211;DHT22;41082;52.822;6.666;2023-08-08T11:32:16;18.80;99.90
55211;DHT22;41082;52.822;6.666;2023-08-08T11:34:42;18.80;99.90
55211;DHT22;41082;52.822;6.666;2023-08-08T11:37:08;18.80;99.90
55211;DHT22;41082;52.822;6.666;2023-08-08T11:39:34;18.90;99.90
55211;DHT22;41082;52.822;6.666;2023-08-08T11:42:00;19.00;99.90
55211;DHT22;41082;52.822;6.666;2023-08-08T11:44:26;19.20;99.90
55211;DHT22;41082;52.822;6.666;2023-08-08T11:46:52;19.30;99.90
55211;DHT22;41082;52.822;6.666;2023-08-08T11:49:18;19.40;99.90
55211;DHT22;41082;52.822;6.666;2023-08-08T11:51:44;19.40;99.90
55211;DHT22;41082;52.822;6.666;2023-08-08T11:54:11;19.30;99.90
55211;DHT22;41082;52.822;6.666;2023-08-08T11:56:36;19.30;99.90
55211;DHT22;41082;52.822;6.666;2023-08-08T11:59:04;19.20;99.90
55211;DHT22;41082;52.822;6.666;2023-08-08T12:01:32;19.20;99.20
55211;DHT22;41082;52.822;6.666;2023-08-08T12:03:58;19.20;99.90
55211;DHT22;41082;52.822;6.666;2023-08-08T12:06:29;19.30;99.10
55211;DHT22;41082;52.822;6.666;2023-08-08T12:08:55;19.30;98.60
55211;DHT22;41082;52.822;6.666;2023-08-08T12:11:21;19.30;99.90
55211;DHT22;41082;52.822;6.666;2023-08-08T12:13:47;19.30;99.90
55211;DHT22;41082;52.822;6.666;2023-08-08T12:16:13;19.30;98.20
55211;DHT22;41082;52.822;6.666;2023-08-08T12:18:40;19.40;98.60
55211;DHT22;41082;52.822;6.666;2023-08-08T12:21:09;19.40;99.20
55211;DHT22;41082;52.822;6.666;2023-08-08T12:23:35;19.50;99.00
55211;DHT22;41082;52.822;6.666;2023-08-08T12:26:03;19.50;99.60
55211;DHT22;41082;52.822;6.666;2023-08-08T12:28:30;19.50;99.90
55211;DHT22;41082;52.822;6.666;2023-08-08T12:30:56;19.60;97.70
55211;DHT22;41082;52.822;6.666;2023-08-08T12:33:21;19.50;97.60
55211;DHT22;41082;52.822;6.666;2023-08-08T12:35:48;19.50;97.40
55211;DHT22;41082;52.822;6.666;2023-08-08T12:38:14;19.40;98.70
55211;DHT22;41082;52.822;6.666;2023-08-08T12:40:40;19.40;97.00
55211;DHT22;41082;52.822;6.666;2023-08-08T12:43:06;19.40;97.20
55211;DHT22;41082;52.822;6.666;2023-08-08T12:45:32;19.50;97.40
55211;DHT22;41082;52.822;6.666;2023-08-08T12:47:57;19.50;98.20
55211;DHT22;41082;52.822;6.666;2023-08-08T12:50:24;19.50;97.50
55211;DHT22;41082;52.822;6.666;2023-08-08T12:52:49;19.50;98.30
55211;DHT22;41082;52.822;6.666;2023-08-08T12:55:15;19.50;97.10
55211;DHT22;41082;52.822;6.666;2023-08-08T12:57:43;19.40;97.50
55211;DHT22;41082;52.822;6.666;2023-08-08T13:00:10;19.40;97.90
55211;DHT22;41082;52.822;6.666;2023-08-08T13:02:37;19.30;97.90
55211;DHT22;41082;52.822;6.666;2023-08-08T13:05:03;19.30;97.20
55211;DHT22;41082;52.822;6.666;2023-08-08T13:07:29;19.40;97.80
55211;DHT22;41082;52.822;6.666;2023-08-08T13:09:54;19.50;97.50
55211;DHT22;41082;52.822;6.666;2023-08-08T13:12:20;19.60;97.50
55211;DHT22;41082;52.822;6.666;2023-08-08T13:14:46;19.60;97.30
55211;DHT22;41082;52.822;6.666;2023-08-08T13:17:12;19.50;98.50
55211;DHT22;41082;52.822;6.666;2023-08-08T13:19:38;19.40;99.00
55211;DHT22;41082;52.822;6.666;2023-08-08T13:22:03;19.40;99.60
55211;DHT22;41082;52.822;6.666;2023-08-08T13:24:29;19.40;99.90
55211;DHT22;41082;52.822;6.666;2023-08-08T13:26:55;19.30;98.70
55211;DHT22;41082;52.822;6.666;2023-08-08T13:29:20;19.40;99.00
55211;DHT22;41082;52.822;6.666;2023-08-08T13:31:46;19.40;99.90
55211;DHT22;41082;52.822;6.666;2023-08-08T13:34:11;19.50;99.40
55211;DHT22;41082;52.822;6.666;2023-08-08T13:36:37;19.50;98.90
55211;DHT22;41082;52.822;6.666;2023-08-08T13:39:03;19.60;99.90
55211;DHT22;41082;52.822;6.666;2023-08-08T13:41:29;19.60;99.60
55211;DHT22;41082;52.822;6.666;2023-08-08T13:43:55;19.50;99.50
55211;DHT22;41082;52.822;6.666;2023-08-08T13:46:21;19.40;99.90
55211;DHT22;41082;52.822;6.666;2023-08-08T13:48:47;19.40;99.50
55211;DHT22;41082;52.822;6.666;2023-08-08T13:51:13;19.20;99.90
55211;DHT22;41082;52.822;6.666;2023-08-08T13:53:38;19.20;99.10
55211;DHT22;41082;52.822;6.666;2023-08-08T13:56:04;19.00;99.40
55211;DHT22;41082;52.822;6.666;2023-08-08T13:58:29;18.90;99.90
55211;DHT22;41082;52.822;6.666;2023-08-08T14:00:55;18.80;99.90
55211;DHT22;41082;52.822;6.666;2023-08-08T14:03:23;18.80;99.90
55211;DHT22;41082;52.822;6.666;2023-08-08T14:05:50;18.80;99.90
55211;DHT22;41082;52.822;6.666;2023-08-08T14:08:18;18.80;99.90
55211;DHT22;41082;52.822;6.666;2023-08-08T14:10:43;18.60;99.90
55211;DHT22;41082;52.822;6.666;2023-08-08T14:13:09;18.60;99.90
55211;DHT22;41082;52.822;6.666;2023-08-08T14:15:37;18.50;99.90
55211;DHT22;41082;52.822;6.666;2023-08-08T14:18:02;18.50;99.90
55211;DHT22;41082;52.822;6.666;2023-08-08T14:20:28;18.50;99.90
55211;DHT22;41082;52.822;6.666;2023-08-08T14:22:53;18.50;99.90
55211;DHT22;41082;52.822;6.666;2023-08-08T14:25:19;18.60;99.90
55211;DHT22;41082;52.822;6.666;2023-08-08T14:27:46;18.70;99.90
55211;DHT22;41082;52.822;6.666;2023-08-08T14:30:11;18.70;99.90
55211;DHT22;41082;52.822;6.666;2023-08-08T14:32:37;18.90;99.90
55211;DHT22;41082;52.822;6.666;2023-08-08T14:35:03;19.00;99.90
55211;DHT22;41082;52.822;6.666;2023-08-08T14:37:30;19.10;99.90
55211;DHT22;41082;52.822;6.666;2023-08-08T14:39:56;19.10;99.90
55211;DHT22;41082;52.822;6.666;2023-08-08T14:42:22;19.10;99.90
55211;DHT22;41082;52.822;6.666;2023-08-08T14:44:48;19.00;99.90
55211;DHT22;41082;52.822;6.666;2023-08-08T14:47:14;18.90;99.90
55211;DHT22;41082;52.822;6.666;2023-08-08T14:49:39;18.90;99.90
55211;DHT22;41082;52.822;6.666;2023-08-08T14:52:05;18.80;99.90
55211;DHT22;41082;52.822;6.666;2023-08-08T14:54:31;18.70;99.90
55211;DHT22;41082;52.822;6.666;2023-08-08T14:56:56;18.70;99.90
55211;DHT22;41082;52.822;6.666;2023-08-08T14:59:23;18.60;99.90
55211;DHT22;41082;52.822;6.666;2023-08-08T15:01:49;18.50;99.90
55211;DHT22;41082;52.822;6.666;2023-08-08T15:04:14;18.50;99.90
55211;DHT22;41082;52.822;6.666;2023-08-08T15:06:40;18.50;99.90
55211;DHT22;41082;52.822;6.666;2023-08-08T15:09:06;18.50;99.90
55211;DHT22;41082;52.822;6.666;2023-08-08T15:11:32;18.50;99.90
55211;DHT22;41082;52.822;6.666;2023-08-08T15:13:58;18.60;99.90
55211;DHT22;41082;52.822;6.666;2023-08-08T15:16:23;18.60;99.90
55211;DHT22;41082;52.822;6.666;2023-08-08T15:18:49;18.60;99.90
55211;DHT22;41082;52.822;6.666;2023-08-08T15:21:15;18.60;99.90
55211;DHT22;41082;52.822;6.666;2023-08-08T15:23:45;18.60;99.90
55211;DHT22;41082;52.822;6.666;2023-08-08T15:26:10;18.60;99.90
55211;DHT22;41082;52.822;6.666;2023-08-08T15:28:38;18.60;99.90
55211;DHT22;41082;52.822;6.666;2023-08-08T15:31:04;18.70;99.90